sensor_id;sensor_type;location;lat;lon;timestamp;P1;P2;P0
64114;PMS5003;62188;35.640;139.748;2023-12-20T00:02:17;31;28;
64114;PMS5003;62188;35.640;139.748;2023-12-20T00:04:42;30;28;
64114;PMS5003;62188;35.640;139.748;2023-12-20T00:07:08;29;28;
64114;PMS5003;62188;35.640;139.748;2023-12-20T00:09:34;34;32;
64114;PMS5003;62188;35.640;139.748;2023-12-20T00:11:58;29;29;
64114;PMS5003;62188;35.640;139.748;2023-12-20T00:14:24;31;30;
64114;PMS5003;62188;35.640;139.748;2023-12-20T00:16:49;33;31;
64114;PMS5003;62188;35.640;139.748;2023-12-20T00:19:13;33;33;
64114;PMS5003;62188;35.640;139.748;2023-12-20T00:21:39;31;31;
64114;PMS5003;62188;35.640;139.748;2023-12-20T00:24:04;39;38;
64114;PMS5003;62188;35.640;139.748;2023-12-20T00:26:29;38;35;
64114;PMS5003;62188;35.640;139.748;2023-12-20T00:28:55;32;31;
64114;PMS5003;62188;35.640;139.748;2023-12-20T00:31:19;34;32;
64114;PMS5003;62188;35.640;139.748;2023-12-20T00:33:45;39;39;
64114;PMS5003;62188;35.640;139.748;2023-12-20T00:36:10;37;35;
64114;PMS5003;62188;35.640;139.748;2023-12-20T00:38:36;40;40;
64114;PMS5003;62188;35.640;139.748;2023-12-20T00:41:02;39;39;
64114;PMS5003;62188;35.640;139.748;2023-12-20T00:43:28;37;37;
64114;PMS5003;62188;35.640;139.748;2023-12-20T00:45:53;38;37;
64114;PMS5003;62188;35.640;139.748;2023-12-20T00:48:17;40;37;
64114;PMS5003;62188;35.640;139.748;2023-12-20T00:50:45;35;35;
64114;PMS5003;62188;35.640;139.748;2023-12-20T00:53:09;42;42;
64114;PMS5003;62188;35.640;139.748;2023-12-20T00:55:34;44;43;
64114;PMS5003;62188;35.640;139.748;2023-12-20T00:57:59;48;45;
64114;PMS5003;62188;35.640;139.748;2023-12-20T01:00:24;41;41;
64114;PMS5003;62188;35.640;139.748;2023-12-20T01:02:50;39;39;
64114;PMS5003;62188;35.640;139.748;2023-12-20T01:05:15;43;41;
64114;PMS5003;62188;35.640;139.748;2023-12-20T01:07:40;45;41;
64114;PMS5003;62188;35.640;139.748;2023-12-20T01:10:06;44;43;
64114;PMS5003;62188;35.640;139.748;2023-12-20T01:12:31;42;41;
64114;PMS5003;62188;35.640;139.748;2023-12-20T01:14:57;36;35;
64114;PMS5003;62188;35.640;139.748;2023-12-20T01:17:23;40;36;
64114;PMS5003;62188;35.640;139.748;2023-12-20T01:19:48;41;39;
64114;PMS5003;62188;35.640;139.748;2023-12-20T01:22:14;37;37;
64114;PMS5003;62188;35.640;139.748;2023-12-20T01:24:39;44;41;
64114;PMS5003;62188;35.640;139.748;2023-12-20T01:27:05;45;42;
64114;PMS5003;62188;35.640;139.748;2023-12-20T01:29:30;47;44;
64114;PMS5003;62188;35.640;139.748;2023-12-20T01:31:55;44;43;
64114;PMS5003;62188;35.640;139.748;2023-12-20T01:34:21;42;38;
64114;PMS5003;62188;35.640;139.748;2023-12-20T01:36:46;45;42;
64114;PMS5003;62188;35.640;139.748;2023-12-20T01:39:12;41;40;
64114;PMS5003;62188;35.640;139.748;2023-12-20T01:41:38;39;37;
64114;PMS5003;62188;35.640;139.748;2023-12-20T01:44:04;42;41;
64114;PMS5003;62188;35.640;139.748;2023-12-20T01:46:29;43;40;
64114;PMS5003;62188;35.640;139.748;2023-12-20T01:48:57;46;46;
64114;PMS5003;62188;35.640;139.748;2023-12-20T01:51:21;44;41;
64114;PMS5003;62188;35.640;139.748;2023-12-20T01:53:47;45;45;
64114;PMS5003;62188;35.640;139.748;2023-12-20T01:56:12;49;48;
64114;PMS5003;62188;35.640;139.748;2023-12-20T01:58:37;44;42;
64114;PMS5003;62188;35.640;139.748;2023-12-20T02:01:03;42;41;
64114;PMS5003;62188;35.640;139.748;2023-12-20T02:03:29;42;41;
64114;PMS5003;62188;35.640;139.748;2023-12-20T02:05:54;45;42;
64114;PMS5003;62188;35.640;139.748;2023-12-20T02:08:22;43;41;
64114;PMS5003;62188;35.640;139.748;2023-12-20T02:10:45;49;49;
64114;PMS5003;62188;35.640;139.748;2023-12-20T02:13:11;55;55;
64114;PMS5003;62188;35.640;139.748;2023-12-20T02:15:38;44;44;
64114;PMS5003;62188;35.640;139.748;2023-12-20T02:18:02;49;46;
64114;PMS5003;62188;35.640;139.748;2023-12-20T02:20:27;52;49;
64114;PMS5003;62188;35.640;139.748;2023-12-20T02:22:54;47;46;
64114;PMS5003;62188;35.640;139.748;2023-12-20T02:25:18;55;51;
64114;PMS5003;62188;35.640;139.748;2023-12-20T02:27:43;53;49;
64114;PMS5003;62188;35.640;139.748;2023-12-20T02:30:09;51;50;
64114;PMS5003;62188;35.640;139.748;2023-12-20T02:32:36;54;51;
64114;PMS5003;62188;35.640;139.748;2023-12-20T02:35:00;51;46;
64114;PMS5003;62188;35.640;139.748;2023-12-20T02:37:25;44;41;
64114;PMS5003;62188;35.640;139.748;2023-12-20T02:39:51;43;42;
64114;PMS5003;62188;35.640;139.748;2023-12-20T02:42:16;49;45;
64114;PMS5003;62188;35.640;139.748;2023-12-20T02:44:41;49;49;
64114;PMS5003;62188;35.640;139.748;2023-12-20T02:47:08;54;49;
64114;PMS5003;62188;35.640;139.748;2023-12-20T02:49:32;48;44;
64114;PMS5003;62188;35.640;139.748;2023-12-20T02:51:57;48;45;
64114;PMS5003;62188;35.640;139.748;2023-12-20T02:54:23;44;41;
64114;PMS5003;62188;35.640;139.748;2023-12-20T02:56:48;41;39;
64114;PMS5003;62188;35.640;139.748;2023-12-20T02:59:14;46;42;
64114;PMS5003;62188;35.640;139.748;2023-12-20T03:01:42;50;45;
64114;PMS5003;62188;35.640;139.748;2023-12-20T03:04:05;47;43;
64114;PMS5003;62188;35.640;139.748;2023-12-20T03:06:30;45;45;
64114;PMS5003;62188;35.640;139.748;2023-12-20T03:08:56;51;50;
64114;PMS5003;62188;35.640;139.748;2023-12-20T03:11:21;45;45;
64114;PMS5003;62188;35.640;139.748;2023-12-20T03:13:46;47;47;
64114;PMS5003;62188;35.640;139.748;2023-12-20T03:16:11;53;50;
64114;PMS5003;62188;35.640;139.748;2023-12-20T03:18:37;49;48;
64114;PMS5003;62188;35.640;139.748;2023-12-20T03:21:02;54;52;
64114;PMS5003;62188;35.640;139.748;2023-12-20T03:23:28;55;52;
64114;PMS5003;62188;35.640;139.748;2023-12-20T03:25:53;66;65;
64114;PMS5003;62188;35.640;139.748;2023-12-20T03:28:19;57;56;
64114;PMS5003;62188;35.640;139.748;2023-12-20T03:30:44;73;69;
64114;PMS5003;62188;35.640;139.748;2023-12-20T03:33:09;67;65;
64114;PMS5003;62188;35.640;139.748;2023-12-20T03:35:36;63;61;
64114;PMS5003;62188;35.640;139.748;2023-12-20T03:38:01;69;66;
64114;PMS5003;62188;35.640;139.748;2023-12-20T03:40:26;67;65;
64114;PMS5003;62188;35.640;139.748;2023-12-20T03:42:51;67;65;
64114;PMS5003;62188;35.640;139.748;2023-12-20T03:45:17;58;56;
64114;PMS5003;62188;35.640;139.748;2023-12-20T03:47:42;64;62;
64114;PMS5003;62188;35.640;139.748;2023-12-20T03:50:08;70;68;
64114;PMS5003;62188;35.640;139.748;2023-12-20T03:52:33;74;71;
64114;PMS5003;62188;35.640;139.748;2023-12-20T03:54:58;68;63;
64114;PMS5003;62188;35.640;139.748;2023-12-20T03:57:23;68;66;
64114;PMS5003;62188;35.640;139.748;2023-12-20T03:59:49;70;67;
64114;PMS5003;62188;35.640;139.748;2023-12-20T04:02:14;72;70;
64114;PMS5003;62188;35.640;139.748;2023-12-20T04:04:39;70;67;
64114;PMS5003;62188;35.640;139.748;2023-12-20T04:07:04;64;61;
64114;PMS5003;62188;35.640;139.748;2023-12-20T04:09:30;70;68;
64114;PMS5003;62188;35.640;139.748;2023-12-20T04:11:56;76;71;
64114;PMS5003;62188;35.640;139.748;2023-12-20T04:14:21;74;72;
64114;PMS5003;62188;35.640;139.748;2023-12-20T04:16:47;71;66;
64114;PMS5003;62188;35.640;139.748;2023-12-20T04:19:12;73;69;
64114;PMS5003;62188;35.640;139.748;2023-12-20T04:21:38;70;65;
64114;PMS5003;62188;35.640;139.748;2023-12-20T04:24:03;73;70;
64114;PMS5003;62188;35.640;139.748;2023-12-20T04:26:28;67;66;
64114;PMS5003;62188;35.640;139.748;2023-12-20T04:28:53;67;62;
64114;PMS5003;62188;35.640;139.748;2023-12-20T04:31:19;73;69;
64114;PMS5003;62188;35.640;139.748;2023-12-20T04:33:45;67;66;
64114;PMS5003;62188;35.640;139.748;2023-12-20T04:36:11;65;65;
64114;PMS5003;62188;35.640;139.748;2023-12-20T04:38:35;60;58;
64114;PMS5003;62188;35.640;139.748;2023-12-20T04:41:01;71;67;
64114;PMS5003;62188;35.640;139.748;2023-12-20T04:43:26;71;69;
64114;PMS5003;62188;35.640;139.748;2023-12-20T04:45:52;69;66;
64114;PMS5003;62188;35.640;139.748;2023-12-20T04:48:18;67;66;
64114;PMS5003;62188;35.640;139.748;2023-12-20T04:50:43;67;65;
64114;PMS5003;62188;35.640;139.748;2023-12-20T04:53:08;62;60;
64114;PMS5003;62188;35.640;139.748;2023-12-20T04:55:34;70;68;
64114;PMS5003;62188;35.640;139.748;2023-12-20T04:57:59;67;66;
64114;PMS5003;62188;35.640;139.748;2023-12-20T05:00:24;68;67;
64114;PMS5003;62188;35.640;139.748;2023-12-20T05:02:50;61;59;
64114;PMS5003;62188;35.640;139.748;2023-12-20T05:05:16;66;64;
64114;PMS5003;62188;35.640;139.748;2023-12-20T05:07:41;70;68;
64114;PMS5003;62188;35.640;139.748;2023-12-20T05:10:07;62;60;
64114;PMS5003;62188;35.640;139.748;2023-12-20T05:12:31;65;62;
64114;PMS5003;62188;35.640;139.748;2023-12-20T05:14:57;58;57;
64114;PMS5003;62188;35.640;139.748;2023-12-20T05:17:22;69;64;
64114;PMS5003;62188;35.640;139.748;2023-12-20T05:19:48;67;66;
64114;PMS5003;62188;35.640;139.748;2023-12-20T05:22:13;63;60;
64114;PMS5003;62188;35.640;139.748;2023-12-20T05:24:38;53;52;
64114;PMS5003;62188;35.640;139.748;2023-12-20T05:27:04;60;58;
64114;PMS5003;62188;35.640;139.748;2023-12-20T05:29:29;60;58;
64114;PMS5003;62188;35.640;139.748;2023-12-20T05:31:55;50;50;
64114;PMS5003;62188;35.640;139.748;2023-12-20T05:34:20;55;52;
64114;PMS5003;62188;35.640;139.748;2023-12-20T05:36:45;55;53;
64114;PMS5003;62188;35.640;139.748;2023-12-20T05:39:12;58;54;
64114;PMS5003;62188;35.640;139.748;2023-12-20T05:41:38;56;56;
64114;PMS5003;62188;35.640;139.748;2023-12-20T05:44:03;57;55;
64114;PMS5003;62188;35.640;139.748;2023-12-20T05:46:29;61;59;
64114;PMS5003;62188;35.640;139.748;2023-12-20T05:48:59;59;56;
64114;PMS5003;62188;35.640;139.748;2023-12-20T05:51:21;59;59;
64114;PMS5003;62188;35.640;139.748;2023-12-20T05:53:46;66;61;
64114;PMS5003;62188;35.640;139.748;2023-12-20T05:56:11;65;64;
64114;PMS5003;62188;35.640;139.748;2023-12-20T05:58:38;61;57;
64114;PMS5003;62188;35.640;139.748;2023-12-20T06:01:03;58;54;
64114;PMS5003;62188;35.640;139.748;2023-12-20T06:03:27;59;58;
64114;PMS5003;62188;35.640;139.748;2023-12-20T06:05:52;67;65;
64114;PMS5003;62188;35.640;139.748;2023-12-20T06:08:17;60;57;
64114;PMS5003;62188;35.640;139.748;2023-12-20T06:10:42;65;61;
64114;PMS5003;62188;35.640;139.748;2023-12-20T06:13:08;56;54;
64114;PMS5003;62188;35.640;139.748;2023-12-20T06:15:33;68;62;
64114;PMS5003;62188;35.640;139.748;2023-12-20T06:17:59;61;59;
64114;PMS5003;62188;35.640;139.748;2023-12-20T06:20:24;58;55;
64114;PMS5003;62188;35.640;139.748;2023-12-20T06:22:50;60;59;
64114;PMS5003;62188;35.640;139.748;2023-12-20T06:25:15;61;59;
64114;PMS5003;62188;35.640;139.748;2023-12-20T06:27:40;58;58;
64114;PMS5003;62188;35.640;139.748;2023-12-20T06:30:06;57;53;
64114;PMS5003;62188;35.640;139.748;2023-12-20T06:32:31;55;51;
64114;PMS5003;62188;35.640;139.748;2023-12-20T06:34:56;53;50;
64114;PMS5003;62188;35.640;139.748;2023-12-20T06:37:22;54;52;
64114;PMS5003;62188;35.640;139.748;2023-12-20T06:39:47;55;51;
64114;PMS5003;62188;35.640;139.748;2023-12-20T06:42:13;56;54;
64114;PMS5003;62188;35.640;139.748;2023-12-20T06:44:40;58;54;
64114;PMS5003;62188;35.640;139.748;2023-12-20T06:47:04;61;58;
64114;PMS5003;62188;35.640;139.748;2023-12-20T06:49:29;62;59;
64114;PMS5003;62188;35.640;139.748;2023-12-20T06:51:55;53;52;
64114;PMS5003;62188;35.640;139.748;2023-12-20T06:54:20;63;61;
64114;PMS5003;62188;35.640;139.748;2023-12-20T06:56:46;53;51;
64114;PMS5003;62188;35.640;139.748;2023-12-20T06:59:11;47;45;
64114;PMS5003;62188;35.640;139.748;2023-12-20T07:01:36;50;47;
64114;PMS5003;62188;35.640;139.748;2023-12-20T07:04:02;45;45;
64114;PMS5003;62188;35.640;139.748;2023-12-20T07:06:27;50;48;
64114;PMS5003;62188;35.640;139.748;2023-12-20T07:08:53;47;45;
64114;PMS5003;62188;35.640;139.748;2023-12-20T07:11:18;39;37;
64114;PMS5003;62188;35.640;139.748;2023-12-20T07:13:43;43;41;
64114;PMS5003;62188;35.640;139.748;2023-12-20T07:16:09;36;36;
64114;PMS5003;62188;35.640;139.748;2023-12-20T07:18:33;43;43;
64114;PMS5003;62188;35.640;139.748;2023-12-20T07:20:59;48;46;
64114;PMS5003;62188;35.640;139.748;2023-12-20T07:23:25;45;41;
64114;PMS5003;62188;35.640;139.748;2023-12-20T07:25:50;43;41;
64114;PMS5003;62188;35.640;139.748;2023-12-20T07:28:17;42;42;
64114;PMS5003;62188;35.640;139.748;2023-12-20T07:30:41;43;42;
64114;PMS5003;62188;35.640;139.748;2023-12-20T07:33:07;44;43;
64114;PMS5003;62188;35.640;139.748;2023-12-20T07:35:32;48;47;
64114;PMS5003;62188;35.640;139.748;2023-12-20T07:37:57;43;39;
64114;PMS5003;62188;35.640;139.748;2023-12-20T07:40:23;48;47;
64114;PMS5003;62188;35.640;139.748;2023-12-20T07:42:50;50;49;
64114;PMS5003;62188;35.640;139.748;2023-12-20T07:45:14;52;51;
64114;PMS5003;62188;35.640;139.748;2023-12-20T07:47:39;48;44;
64114;PMS5003;62188;35.640;139.748;2023-12-20T07:50:06;46;43;
64114;PMS5003;62188;35.640;139.748;2023-12-20T07:52:32;48;47;
64114;PMS5003;62188;35.640;139.748;2023-12-20T07:54:56;53;49;
64114;PMS5003;62188;35.640;139.748;2023-12-20T07:57:22;50;47;
64114;PMS5003;62188;35.640;139.748;2023-12-20T07:59:47;45;45;
64114;PMS5003;62188;35.640;139.748;2023-12-20T08:02:13;42;41;
64114;PMS5003;62188;35.640;139.748;2023-12-20T08:04:39;48;47;
64114;PMS5003;62188;35.640;139.748;2023-12-20T08:07:06;46;43;
64114;PMS5003;62188;35.640;139.748;2023-12-20T08:09:31;44;41;
64114;PMS5003;62188;35.640;139.748;2023-12-20T08:11:55;40;39;
64114;PMS5003;62188;35.640;139.748;2023-12-20T08:14:20;42;41;
64114;PMS5003;62188;35.640;139.748;2023-12-20T08:16:46;51;47;
64114;PMS5003;62188;35.640;139.748;2023-12-20T08:19:13;56;49;
64114;PMS5003;62188;35.640;139.748;2023-12-20T08:21:36;54;50;
64114;PMS5003;62188;35.640;139.748;2023-12-20T08:24:02;49;49;
64114;PMS5003;62188;35.640;139.748;2023-12-20T08:26:28;50;49;
64114;PMS5003;62188;35.640;139.748;2023-12-20T08:28:53;52;48;
64114;PMS5003;62188;35.640;139.748;2023-12-20T08:31:19;47;44;
64114;PMS5003;62188;35.640;139.748;2023-12-20T08:33:44;41;41;
64114;PMS5003;62188;35.640;139.748;2023-12-20T08:36:10;44;40;
64114;PMS5003;62188;35.640;139.748;2023-12-20T08:38:35;36;36;
64114;PMS5003;62188;35.640;139.748;2023-12-20T08:41:00;38;38;
64114;PMS5003;62188;35.640;139.748;2023-12-20T08:43:26;46;43;
64114;PMS5003;62188;35.640;139.748;2023-12-20T08:45:51;38;36;
64114;PMS5003;62188;35.640;139.748;2023-12-20T08:48:17;35;34;
64114;PMS5003;62188;35.640;139.748;2023-12-20T08:50:42;37;36;
64114;PMS5003;62188;35.640;139.748;2023-12-20T08:53:08;37;36;
64114;PMS5003;62188;35.640;139.748;2023-12-20T08:55:33;27;27;
64114;PMS5003;62188;35.640;139.748;2023-12-20T08:57:58;34;32;
64114;PMS5003;62188;35.640;139.748;2023-12-20T09:00:24;31;28;
64114;PMS5003;62188;35.640;139.748;2023-12-20T09:02:49;30;29;
64114;PMS5003;62188;35.640;139.748;2023-12-20T09:05:14;29;28;
64114;PMS5003;62188;35.640;139.748;2023-12-20T09:07:40;31;29;
64114;PMS5003;62188;35.640;139.748;2023-12-20T09:10:05;26;25;
64114;PMS5003;62188;35.640;139.748;2023-12-20T09:12:32;24;24;
64114;PMS5003;62188;35.640;139.748;2023-12-20T09:14:56;25;25;
64114;PMS5003;62188;35.640;139.748;2023-12-20T09:17:22;27;26;
64114;PMS5003;62188;35.640;139.748;2023-12-20T09:19:47;26;24;
64114;PMS5003;62188;35.640;139.748;2023-12-20T09:22:12;21;20;
64114;PMS5003;62188;35.640;139.748;2023-12-20T09:24:38;22;22;
64114;PMS5003;62188;35.640;139.748;2023-12-20T09:27:04;21;20;
64114;PMS5003;62188;35.640;139.748;2023-12-20T09:29:29;20;19;
64114;PMS5003;62188;35.640;139.748;2023-12-20T09:31:54;24;22;
64114;PMS5003;62188;35.640;139.748;2023-12-20T09:34:20;21;20;
64114;PMS5003;62188;35.640;139.748;2023-12-20T09:36:45;19;19;
64114;PMS5003;62188;35.640;139.748;2023-12-20T09:39:11;21;21;
64114;PMS5003;62188;35.640;139.748;2023-12-20T09:41:37;24;24;
64114;PMS5003;62188;35.640;139.748;2023-12-20T09:44:02;22;22;
64114;PMS5003;62188;35.640;139.748;2023-12-20T09:46:27;22;22;
64114;PMS5003;62188;35.640;139.748;2023-12-20T09:48:52;27;24;
64114;PMS5003;62188;35.640;139.748;2023-12-20T09:51:20;25;25;
64114;PMS5003;62188;35.640;139.748;2023-12-20T09:53:44;22;22;
64114;PMS5003;62188;35.640;139.748;2023-12-20T09:56:10;23;22;
64114;PMS5003;62188;35.640;139.748;2023-12-20T09:58:36;22;21;
64114;PMS5003;62188;35.640;139.748;2023-12-20T10:01:01;26;23;
64114;PMS5003;62188;35.640;139.748;2023-12-20T10:03:26;22;21;
64114;PMS5003;62188;35.640;139.748;2023-12-20T10:05:51;25;23;
64114;PMS5003;62188;35.640;139.748;2023-12-20T10:08:17;32;30;
64114;PMS5003;62188;35.640;139.748;2023-12-20T10:10:44;24;22;
64114;PMS5003;62188;35.640;139.748;2023-12-20T10:13:09;30;27;
64114;PMS5003;62188;35.640;139.748;2023-12-20T10:15:34;24;24;
64114;PMS5003;62188;35.640;139.748;2023-12-20T10:17:59;25;23;
64114;PMS5003;62188;35.640;139.748;2023-12-20T10:20:24;24;22;
64114;PMS5003;62188;35.640;139.748;2023-12-20T10:22:51;26;26;
64114;PMS5003;62188;35.640;139.748;2023-12-20T10:25:15;27;26;
64114;PMS5003;62188;35.640;139.748;2023-12-20T10:27:41;25;25;
64114;PMS5003;62188;35.640;139.748;2023-12-20T10:30:08;24;24;
64114;PMS5003;62188;35.640;139.748;2023-12-20T10:32:33;26;25;
64114;PMS5003;62188;35.640;139.748;2023-12-20T10:34:58;28;27;
64114;PMS5003;62188;35.640;139.748;2023-12-20T10:37:23;25;24;
64114;PMS5003;62188;35.640;139.748;2023-12-20T10:39:49;24;24;
64114;PMS5003;62188;35.640;139.748;2023-12-20T10:42:14;21;21;
64114;PMS5003;62188;35.640;139.748;2023-12-20T10:44:40;21;20;
64114;PMS5003;62188;35.640;139.748;2023-12-20T10:47:06;18;18;
64114;PMS5003;62188;35.640;139.748;2023-12-20T10:49:31;19;19;
64114;PMS5003;62188;35.640;139.748;2023-12-20T10:51:56;21;20;
64114;PMS5003;62188;35.640;139.748;2023-12-20T10:54:22;20;20;
64114;PMS5003;62188;35.640;139.748;2023-12-20T10:56:48;22;21;
64114;PMS5003;62188;35.640;139.748;2023-12-20T10:59:13;21;21;
64114;PMS5003;62188;35.640;139.748;2023-12-20T11:01:39;20;20;
64114;PMS5003;62188;35.640;139.748;2023-12-20T11:04:05;21;21;
64114;PMS5003;62188;35.640;139.748;2023-12-20T11:06:33;26;23;
64114;PMS5003;62188;35.640;139.748;2023-12-20T11:08:58;26;26;
64114;PMS5003;62188;35.640;139.748;2023-12-20T11:11:21;25;25;
64114;PMS5003;62188;35.640;139.748;2023-12-20T11:13:53;25;24;
64114;PMS5003;62188;35.640;139.748;2023-12-20T11:16:12;27;27;
64114;PMS5003;62188;35.640;139.748;2023-12-20T11:18:36;31;31;
64114;PMS5003;62188;35.640;139.748;2023-12-20T11:21:02;35;34;
64114;PMS5003;62188;35.640;139.748;2023-12-20T11:23:27;28;28;
64114;PMS5003;62188;35.640;139.748;2023-12-20T11:25:53;28;27;
64114;PMS5003;62188;35.640;139.748;2023-12-20T11:28:21;29;26;
64114;PMS5003;62188;35.640;139.748;2023-12-20T11:30:46;27;26;
64114;PMS5003;62188;35.640;139.748;2023-12-20T11:33:11;26;25;
64114;PMS5003;62188;35.640;139.748;2023-12-20T11:35:35;33;31;
64114;PMS5003;62188;35.640;139.748;2023-12-20T11:38:00;27;25;
64114;PMS5003;62188;35.640;139.748;2023-12-20T11:40:26;27;26;
64114;PMS5003;62188;35.640;139.748;2023-12-20T11:42:52;30;28;
64114;PMS5003;62188;35.640;139.748;2023-12-20T11:45:17;33;30;
64114;PMS5003;62188;35.640;139.748;2023-12-20T11:47:43;26;25;
64114;PMS5003;62188;35.640;139.748;2023-12-20T11:50:08;28;27;
64114;PMS5003;62188;35.640;139.748;2023-12-20T11:52:33;30;30;
64114;PMS5003;62188;35.640;139.748;2023-12-20T11:54:58;27;25;
64114;PMS5003;62188;35.640;139.748;2023-12-20T11:57:24;27;26;
64114;PMS5003;62188;35.640;139.748;2023-12-20T11:59:49;32;32;
64114;PMS5003;62188;35.640;139.748;2023-12-20T12:02:15;33;32;
64114;PMS5003;62188;35.640;139.748;2023-12-20T12:04:41;32;31;
64114;PMS5003;62188;35.640;139.748;2023-12-20T12:07:07;28;28;
64114;PMS5003;62188;35.640;139.748;2023-12-20T12:09:31;33;31;
64114;PMS5003;62188;35.640;139.748;2023-12-20T12:11:57;31;30;
64114;PMS5003;62188;35.640;139.748;2023-12-20T12:14:22;35;32;
64114;PMS5003;62188;35.640;139.748;2023-12-20T12:16:49;33;31;
64114;PMS5003;62188;35.640;139.748;2023-12-20T12:21:38;35;34;
64114;PMS5003;62188;35.640;139.748;2023-12-20T12:24:07;33;32;
64114;PMS5003;62188;35.640;139.748;2023-12-20T12:26:30;34;34;
64114;PMS5003;62188;35.640;139.748;2023-12-20T12:28:55;32;31;
64114;PMS5003;62188;35.640;139.748;2023-12-20T12:31:19;33;33;
64114;PMS5003;62188;35.640;139.748;2023-12-20T12:33:44;40;36;
64114;PMS5003;62188;35.640;139.748;2023-12-20T12:36:18;35;34;
64114;PMS5003;62188;35.640;139.748;2023-12-20T12:38:36;39;39;
64114;PMS5003;62188;35.640;139.748;2023-12-20T12:41:00;39;35;
64114;PMS5003;62188;35.640;139.748;2023-12-20T12:43:26;41;38;
64114;PMS5003;62188;35.640;139.748;2023-12-20T12:45:50;44;39;
64114;PMS5003;62188;35.640;139.748;2023-12-20T12:48:16;49;44;
64114;PMS5003;62188;35.640;139.748;2023-12-20T12:50:42;48;43;
64114;PMS5003;62188;35.640;139.748;2023-12-20T12:53:07;40;38;
64114;PMS5003;62188;35.640;139.748;2023-12-20T12:55:34;40;40;
64114;PMS5003;62188;35.640;139.748;2023-12-20T12:58:00;44;42;
64114;PMS5003;62188;35.640;139.748;2023-12-20T13:00:24;41;38;
64114;PMS5003;62188;35.640;139.748;2023-12-20T13:02:49;40;39;
64114;PMS5003;62188;35.640;139.748;2023-12-20T13:05:14;48;44;
64114;PMS5003;62188;35.640;139.748;2023-12-20T13:07:40;46;45;
64114;PMS5003;62188;35.640;139.748;2023-12-20T13:10:05;41;40;
64114;PMS5003;62188;35.640;139.748;2023-12-20T13:12:31;42;42;
64114;PMS5003;62188;35.640;139.748;2023-12-20T13:14:57;48;45;
64114;PMS5003;62188;35.640;139.748;2023-12-20T13:17:22;42;41;
64114;PMS5003;62188;35.640;139.748;2023-12-20T13:19:47;40;39;
64114;PMS5003;62188;35.640;139.748;2023-12-20T13:22:13;45;42;
64114;PMS5003;62188;35.640;139.748;2023-12-20T13:24:38;41;40;
64114;PMS5003;62188;35.640;139.748;2023-12-20T13:27:04;50;50;
64114;PMS5003;62188;35.640;139.748;2023-12-20T13:29:29;54;53;
64114;PMS5003;62188;35.640;139.748;2023-12-20T13:31:54;52;48;
64114;PMS5003;62188;35.640;139.748;2023-12-20T13:34:20;59;57;
64114;PMS5003;62188;35.640;139.748;2023-12-20T13:36:46;61;60;
64114;PMS5003;62188;35.640;139.748;2023-12-20T13:39:12;54;53;
64114;PMS5003;62188;35.640;139.748;2023-12-20T13:41:37;51;49;
64114;PMS5003;62188;35.640;139.748;2023-12-20T13:44:04;54;52;
64114;PMS5003;62188;35.640;139.748;2023-12-20T13:46:28;66;62;
64114;PMS5003;62188;35.640;139.748;2023-12-20T13:48:53;56;55;
64114;PMS5003;62188;35.640;139.748;2023-12-20T13:51:19;62;60;
64114;PMS5003;62188;35.640;139.748;2023-12-20T13:53:44;60;56;
64114;PMS5003;62188;35.640;139.748;2023-12-20T13:56:10;57;57;
64114;PMS5003;62188;35.640;139.748;2023-12-20T13:58:36;54;49;
64114;PMS5003;62188;35.640;139.748;2023-12-20T14:01:00;58;57;
64114;PMS5003;62188;35.640;139.748;2023-12-20T14:03:26;54;52;
64114;PMS5003;62188;35.640;139.748;2023-12-20T14:05:51;55;53;
64114;PMS5003;62188;35.640;139.748;2023-12-20T14:08:16;58;57;
64114;PMS5003;62188;35.640;139.748;2023-12-20T14:10:45;58;56;
64114;PMS5003;62188;35.640;139.748;2023-12-20T14:13:07;57;54;
64114;PMS5003;62188;35.640;139.748;2023-12-20T14:15:32;55;52;
64114;PMS5003;62188;35.640;139.748;2023-12-20T14:17:58;55;55;
64114;PMS5003;62188;35.640;139.748;2023-12-20T14:20:23;58;56;
64114;PMS5003;62188;35.640;139.748;2023-12-20T14:22:49;54;54;
64114;PMS5003;62188;35.640;139.748;2023-12-20T14:25:15;58;58;
64114;PMS5003;62188;35.640;139.748;2023-12-20T14:27:41;62;58;
64114;PMS5003;62188;35.640;139.748;2023-12-20T14:30:05;55;52;
64114;PMS5003;62188;35.640;139.748;2023-12-20T14:32:30;57;54;
64114;PMS5003;62188;35.640;139.748;2023-12-20T14:34:56;54;53;
64114;PMS5003;62188;35.640;139.748;2023-12-20T14:37:21;67;62;
64114;PMS5003;62188;35.640;139.748;2023-12-20T14:39:46;62;60;
64114;PMS5003;62188;35.640;139.748;2023-12-20T14:42:11;57;55;
64114;PMS5003;62188;35.640;139.748;2023-12-20T14:44:38;56;54;
64114;PMS5003;62188;35.640;139.748;2023-12-20T14:47:03;58;56;
64114;PMS5003;62188;35.640;139.748;2023-12-20T14:49:28;54;50;
64114;PMS5003;62188;35.640;139.748;2023-12-20T14:51:54;76;72;
64114;PMS5003;62188;35.640;139.748;2023-12-20T14:54:19;58;55;
64114;PMS5003;62188;35.640;139.748;2023-12-20T14:56:44;68;64;
64114;PMS5003;62188;35.640;139.748;2023-12-20T14:59:10;65;60;
64114;PMS5003;62188;35.640;139.748;2023-12-20T15:01:36;59;58;
64114;PMS5003;62188;35.640;139.748;2023-12-20T15:04:03;56;52;
64114;PMS5003;62188;35.640;139.748;2023-12-20T15:06:28;58;53;
64114;PMS5003;62188;35.640;139.748;2023-12-20T15:08:53;71;64;
64114;PMS5003;62188;35.640;139.748;2023-12-20T15:11:17;55;54;
64114;PMS5003;62188;35.640;139.748;2023-12-20T15:13:43;57;55;
64114;PMS5003;62188;35.640;139.748;2023-12-20T15:16:09;56;53;
64114;PMS5003;62188;35.640;139.748;2023-12-20T15:18:34;58;53;
64114;PMS5003;62188;35.640;139.748;2023-12-20T15:21:01;57;54;
64114;PMS5003;62188;35.640;139.748;2023-12-20T15:23:25;58;56;
64114;PMS5003;62188;35.640;139.748;2023-12-20T15:25:50;72;67;
64114;PMS5003;62188;35.640;139.748;2023-12-20T15:28:16;59;55;
64114;PMS5003;62188;35.640;139.748;2023-12-20T15:30:41;54;50;
64114;PMS5003;62188;35.640;139.748;2023-12-20T15:33:07;65;63;
64114;PMS5003;62188;35.640;139.748;2023-12-20T15:35:32;58;52;
64114;PMS5003;62188;35.640;139.748;2023-12-20T15:37:59;58;53;